WetterOnline ( http://www.wetteronline.de )

Wetter aktuell Kolari

Aktuelles Wetter: Pajala A (171m)

6-stündlich | Neueste Meldungen
Ortszeit Temperatur Wetter
Sa, 23.03. 19:00 3.3° C bewölkt
Sa, 23.03. 13:00 4.2° C wolkenlos
Sa, 23.03. 7:00 0.1° C bedeckt
Sa, 23.03. 1:00 -0.9° C leichter Schneefall
Fr, 22.03. 19:00 0.2° C wolkig
Fr, 22.03. 13:00 3.2° C wolkenlos
Fr, 22.03. 7:00 -5.0° C wolkenlos
Fr, 22.03. 1:00 -1.0° C bedeckt
Ortszeit Temperatur Wetter
So, 24.03. 0:00 1.9° C bedeckt
Sa, 23.03. 23:00 2.0° C bedeckt
Sa, 23.03. 22:00 2.1° C bedeckt
Sa, 23.03. 21:00 1.7° C leicht bewölkt
Sa, 23.03. 20:00 2.3° C bewölkt
Sa, 23.03. 19:00 3.3° C bewölkt
Ortszeit Relative Feuchte Sichtweite
Sa, 23.03. 19:00 50% >50 km
Sa, 23.03. 13:00 74% 45 km
Sa, 23.03. 7:00 93% 35 km
Sa, 23.03. 1:00 96% 5.0 km
Fr, 22.03. 19:00 47% >50 km
Fr, 22.03. 13:00 37% 20 km
Fr, 22.03. 7:00 68% 30 km
Fr, 22.03. 1:00 62% 28 km
Ortszeit Relative Feuchte Sichtweite
So, 24.03. 0:00 59% >50 km
Sa, 23.03. 23:00 57% >50 km
Sa, 23.03. 22:00 55% >50 km
Sa, 23.03. 21:00 58% >50 km
Sa, 23.03. 20:00 55% >50 km
Sa, 23.03. 19:00 50% >50 km
Ortszeit Niederschlagsmenge Niederschlagsart
Sa, 23.03. 19:00 0.1 l/m2 in 12 Std. -
Sa, 23.03. 13:00 0.0 l/m2 in 1 Std. Schneeschauer
Sa, 23.03. 7:00 3 l/m2 in 12 Std. Schnee, Niederschlag
Sa, 23.03. 1:00 keine Meldung -
Fr, 22.03. 19:00 0.0 l/m2 in 12 Std. -
Fr, 22.03. 13:00 keine Meldung -
Fr, 22.03. 7:00 0.3 l/m2 in 12 Std. -
Fr, 22.03. 1:00 0.1 l/m2 in 1 Std. Schneeschauer
Ortszeit Niederschlagsmenge Niederschlagsart
So, 24.03. 0:00 0.0 l/m2 in 1 Std. -
Sa, 23.03. 23:00 0.0 l/m2 in 1 Std. -
Sa, 23.03. 22:00 0.0 l/m2 in 1 Std. -
Sa, 23.03. 21:00 0.0 l/m2 in 1 Std. -
Sa, 23.03. 20:00 0.0 l/m2 in 1 Std. -
Sa, 23.03. 19:00 0.0 l/m2 in 1 Std. -
Ortszeit Stärke Spitze Richtung
km/h Bft. km/h Grad Sektor
Sa, 23.03. 19:00 22 4 43 210° SW
Sa, 23.03. 13:00 18 3 - 210° SW
Sa, 23.03. 7:00 11 2 - 200° S
Sa, 23.03. 1:00 14 3 - 180° S
Fr, 22.03. 19:00 14 3 - 160° S
Fr, 22.03. 13:00 17 3 - 230° SW
Fr, 22.03. 7:00 4 1 18 350° N
Fr, 22.03. 1:00 18 3 - 310° NW
Ortszeit Stärke Spitze Richtung
km/h Bft. km/h Grad Sektor
So, 24.03. 0:00 22 4 43 200° S
Sa, 23.03. 23:00 25 4 43 210° SW
Sa, 23.03. 22:00 18 3 43 200° S
Sa, 23.03. 21:00 18 3 - 200° S
Sa, 23.03. 20:00 18 3 43 200° S
Sa, 23.03. 19:00 22 4 43 210° SW
Ortszeit Untergrenze Bedeckung Gattung
total tief tief mittel hoch
Sa, 23.03. 19:00 3600 m 8/8 7/8 - - -
Sa, 23.03. 13:00 - 0/8 0/8 - - -
Sa, 23.03. 7:00 270 m 8/8 8/8 - - -
Sa, 23.03. 1:00 210 m 8/8 8/8 - - -
Fr, 22.03. 19:00 6900 m 7/8 5/8 - - -
Fr, 22.03. 13:00 - 0/8 0/8 - - -
Fr, 22.03. 7:00 - 0/8 0/8 - - -
Fr, 22.03. 1:00 2700 m 8/8 8/8 - - -
Ortszeit Bedeckungsgrad in Achtel und Wolkenuntergrenze
So, 24.03. 0:00 8(2400m)
Sa, 23.03. 23:00 8(3600m)
Sa, 23.03. 22:00 8(3300m)
Sa, 23.03. 21:00 1(5400m)
Sa, 23.03. 20:00 7(5100m)
Sa, 23.03. 19:00 7(3600m)
Ortszeit Luftdruck NN (hPa) Tendenz (hPa in 3 Std.)
Sa, 23.03. 19:00 985 - 1,6
Sa, 23.03. 13:00 987 - 2,1
Sa, 23.03. 7:00 993 - 3,4
Sa, 23.03. 1:00 1002 - 5,0
Fr, 22.03. 19:00 1012 - 4,3
Fr, 22.03. 13:00 1018 - 0,3
Fr, 22.03. 7:00 1018 + 3,2
Fr, 22.03. 1:00 1009 + 6,5
Ortszeit Luftdruck NN (hPa) Tendenz (hPa in 3 Std.)
So, 24.03. 0:00 979 - 4,1
Sa, 23.03. 23:00 980 - 4,1
Sa, 23.03. 22:00 981 - 3,2
Sa, 23.03. 21:00 983 - 2,5
Sa, 23.03. 20:00 984 - 2,0
Sa, 23.03. 19:00 985 - 1,6
Ortszeit Schneehöhe (cm)
Sa, 23.03. 19:00 -
Sa, 23.03. 13:00 -
Sa, 23.03. 7:00 -
Sa, 23.03. 1:00 -
Fr, 22.03. 19:00 -
Fr, 22.03. 13:00 -
Fr, 22.03. 7:00 -
Fr, 22.03. 1:00 -
Ortszeit Schneehöhe (cm)
So, 24.03. 0:00 -
Sa, 23.03. 23:00 -
Sa, 23.03. 22:00 -
Sa, 23.03. 21:00 -
Sa, 23.03. 20:00 -
Sa, 23.03. 19:00 -
Link zu dieser Seite / Seite empfehlen

Das Wetter in ...